High wind

Not for real navigation. The accuracy of this data is not assured See disclaimer for more information



ICAO NAME COUNTRY WIND Kt GUST Kt VIS m TEMP/DEW C BARO METAR
KBCT Boca Raton, Boca Raton Airport FL United States 170 0 9999 24/18 29.89 KBCT 252347Z 130V17005KT 10SM CAVOK 24/18 A2989
KGPM Grand Prairie, Grand Prairie M TX United States 78 0 16000 12/9 30.13 KGPM 252350Z 300078KT 10SM SCT010 BKN015 BKN027 12/09 A3013
KMWN Mount Washington NH United States 46 58 9999 2/2 29.92 KMWN 252349Z 14046G58KT 0SM +RA FG VV000 02/02 RMK 60017 4/009 10025 20009
K1KM 35 42 16000 9/-1 30.09 K1KM 252358Z AUTO 01035G42KT 10SM FEW090 FEW100 09/M01 A3009 RMK AO2 PK WND 01046/19 RAB23E27SHRAB27
K0CO 28 33 9999 0/-5 30.37 K0CO 252354Z AUTO 29028G33KT CAVOK 00/M05 A3037 RMK AO2 PWINO

Show more